createdAt,value
2023-05-22T00:01:46.837Z,12.93
2023-05-22T00:04:52.304Z,12.94
2023-05-22T00:07:57.594Z,12.93
2023-05-22T00:11:02.779Z,12.94
2023-05-22T00:14:09.284Z,12.81
2023-05-22T00:17:15.137Z,12.91
2023-05-22T00:20:20.319Z,12.83
2023-05-22T00:23:26.020Z,12.84
2023-05-22T00:26:31.070Z,12.83
2023-05-22T00:29:37.501Z,12.97
2023-05-22T00:32:43.014Z,12.89
2023-05-22T00:35:48.155Z,12.94
2023-05-22T00:38:53.168Z,12.85
2023-05-22T00:41:58.173Z,12.86
2023-05-22T00:45:05.165Z,13.03
2023-05-22T00:48:13.893Z,12.91
2023-05-22T00:51:19.018Z,12.80
2023-05-22T00:54:24.100Z,12.79
2023-05-22T00:57:29.854Z,12.79
2023-05-22T01:00:36.993Z,12.74
2023-05-22T01:03:46.013Z,12.56
2023-05-22T01:06:51.618Z,12.66
2023-05-22T01:09:56.718Z,12.57
2023-05-22T01:13:06.489Z,12.51
2023-05-22T01:16:22.114Z,12.47
2023-05-22T01:19:42.248Z,12.47
2023-05-22T01:23:17.515Z,12.43
2023-05-22T01:26:56.608Z,12.30
2023-05-22T01:30:19.414Z,12.39
2023-05-22T01:33:27.193Z,12.34
2023-05-22T01:36:35.221Z,12.37
2023-05-22T01:39:40.570Z,12.26
2023-05-22T01:42:47.678Z,12.18
2023-05-22T01:45:52.786Z,12.22
2023-05-22T01:48:59.294Z,12.26
2023-05-22T01:52:12.314Z,12.47
2023-05-22T01:55:21.834Z,12.24
2023-05-22T01:58:33.030Z,12.20
2023-05-22T02:01:39.314Z,12.31
2023-05-22T02:04:50.790Z,12.28
2023-05-22T02:07:59.173Z,12.17
2023-05-22T02:11:05.299Z,12.23
2023-05-22T02:14:12.289Z,12.05
2023-05-22T02:17:18.801Z,12.09
2023-05-22T02:20:25.167Z,12.13
2023-05-22T02:23:30.628Z,12.08
2023-05-22T02:26:35.833Z,12.01
2023-05-22T02:29:41.938Z,12.07
2023-05-22T02:32:48.693Z,11.97
2023-05-22T02:35:54.889Z,11.99
2023-05-22T02:39:00.331Z,11.96
2023-05-22T02:42:05.803Z,11.97
2023-05-22T02:45:11.625Z,11.96
2023-05-22T02:48:16.903Z,11.85
2023-05-22T02:51:23.601Z,11.86
2023-05-22T02:54:28.734Z,11.92
2023-05-22T02:57:33.735Z,11.84
2023-05-22T03:00:39.163Z,11.89
2023-05-22T03:03:44.583Z,11.92
2023-05-22T03:06:51.236Z,12.04
2023-05-22T03:09:56.470Z,11.99
2023-05-22T03:13:01.552Z,11.99
2023-05-22T03:16:08.422Z,12.07
2023-05-22T03:19:17.858Z,12.00
2023-05-22T03:22:24.381Z,12.04
2023-05-22T03:25:29.488Z,12.06
2023-05-22T03:28:34.785Z,12.08
2023-05-22T03:31:40.081Z,12.06
2023-05-22T03:34:48.788Z,12.04
2023-05-22T03:37:55.282Z,12.20
2023-05-22T03:41:00.658Z,12.23
2023-05-22T03:44:05.926Z,12.23
2023-05-22T03:47:14.030Z,12.26
2023-05-22T03:50:19.091Z,12.30
2023-05-22T03:53:25.771Z,12.30
2023-05-22T03:56:31.532Z,12.31
2023-05-22T03:59:36.517Z,12.28
2023-05-22T04:02:45.313Z,12.28
2023-05-22T04:05:51.471Z,12.27
2023-05-22T04:08:58.940Z,12.47
2023-05-22T04:12:04.349Z,12.47
2023-05-22T04:15:10.540Z,12.51
2023-05-22T04:18:15.783Z,12.58
2023-05-22T04:21:20.888Z,12.62
2023-05-22T04:24:27.820Z,12.71
2023-05-22T04:27:33.293Z,12.76
2023-05-22T04:30:40.413Z,12.76
2023-05-22T04:33:48.394Z,12.85
2023-05-22T04:36:53.450Z,12.86
2023-05-22T04:40:02.913Z,12.97
2023-05-22T04:43:08.598Z,13.01
2023-05-22T04:46:14.431Z,13.06
2023-05-22T04:49:19.529Z,13.10
2023-05-22T04:52:24.577Z,13.20
2023-05-22T04:55:34.288Z,13.39
2023-05-22T04:58:40.360Z,13.46
2023-05-22T05:01:45.609Z,13.54
2023-05-22T05:04:50.780Z,13.62
2023-05-22T05:07:55.886Z,13.63
2023-05-22T05:11:03.180Z,13.75
2023-05-22T05:14:08.186Z,13.82
2023-05-22T05:17:13.951Z,13.86
2023-05-22T05:20:19.053Z,13.92
2023-05-22T05:23:24.111Z,13.98
2023-05-22T05:26:30.624Z,14.16
2023-05-22T05:29:36.957Z,14.34
2023-05-22T05:32:48.436Z,14.58
2023-05-22T05:36:12.370Z,14.72
2023-05-22T05:39:18.225Z,15.05
2023-05-22T05:42:24.882Z,15.34
2023-05-22T05:45:32.838Z,15.56
2023-05-22T05:48:38.099Z,15.73
2023-05-22T05:51:43.617Z,16.01
2023-05-22T05:54:50.060Z,16.19
2023-05-22T05:58:00.179Z,16.40
2023-05-22T06:01:16.851Z,16.53
2023-05-22T06:04:21.850Z,16.68
2023-05-22T06:07:29.758Z,16.91
2023-05-22T06:10:34.831Z,17.19
2023-05-22T06:13:51.397Z,17.38
2023-05-22T06:16:56.705Z,17.57
2023-05-22T06:20:02.093Z,17.72
2023-05-22T06:23:08.116Z,17.91
2023-05-22T06:26:14.326Z,17.89
2023-05-22T06:29:22.856Z,18.06
2023-05-22T06:32:29.495Z,18.31
2023-05-22T06:35:34.860Z,18.31
2023-05-22T06:38:40.810Z,18.45
2023-05-22T06:41:58.402Z,18.56
2023-05-22T06:45:05.492Z,18.71
2023-05-22T06:48:20.124Z,18.80
2023-05-22T06:51:45.688Z,18.85
2023-05-22T06:54:52.390Z,19.09
2023-05-22T06:57:57.546Z,19.08
2023-05-22T07:01:05.961Z,19.11
2023-05-22T07:04:17.219Z,19.17
2023-05-22T07:07:33.060Z,19.26
2023-05-22T07:10:38.398Z,19.31
2023-05-22T07:13:43.576Z,19.49
2023-05-22T07:16:50.358Z,19.35
2023-05-22T07:20:01.806Z,19.33
2023-05-22T07:23:07.711Z,19.46
2023-05-22T07:26:14.660Z,19.71
2023-05-22T07:29:26.881Z,19.86
2023-05-22T07:32:34.760Z,19.89
2023-05-22T07:35:41.311Z,19.75
2023-05-22T07:38:47.332Z,19.82
2023-05-22T07:41:54.589Z,19.99
2023-05-22T07:45:02.238Z,20.02
2023-05-22T07:48:09.134Z,19.90
2023-05-22T07:51:15.441Z,20.02
2023-05-22T07:54:20.712Z,20.10
2023-05-22T07:57:29.918Z,20.03
2023-05-22T08:00:40.595Z,20.18
2023-05-22T08:03:47.197Z,20.25
2023-05-22T08:06:52.463Z,20.30
2023-05-22T08:09:57.499Z,20.20
2023-05-22T08:13:06.273Z,20.23
2023-05-22T08:16:12.936Z,20.30
2023-05-22T08:19:19.639Z,20.26
2023-05-22T08:22:24.813Z,20.11
2023-05-22T08:25:30.052Z,20.10
2023-05-22T08:28:35.795Z,20.10
2023-05-22T08:31:41.223Z,20.10
2023-05-22T08:34:48.031Z,20.06
2023-05-22T08:37:53.091Z,20.03
2023-05-22T08:40:59.003Z,20.03
2023-05-22T08:44:06.020Z,20.07
2023-05-22T08:47:15.232Z,20.18
2023-05-22T08:50:22.308Z,20.20
2023-05-22T08:53:30.087Z,20.11
2023-05-22T08:56:39.686Z,20.18
2023-05-22T08:59:48.134Z,20.35
2023-05-22T09:02:55.877Z,20.17
2023-05-22T09:06:03.061Z,20.16
2023-05-22T09:09:08.239Z,20.18
2023-05-22T09:12:14.241Z,20.25
2023-05-22T09:15:21.321Z,20.31
2023-05-22T09:18:29.770Z,20.42
2023-05-22T09:21:38.602Z,20.36
2023-05-22T09:24:44.959Z,20.28
2023-05-22T09:27:50.433Z,20.34
2023-05-22T09:30:56.565Z,20.37
2023-05-22T09:34:01.693Z,20.50
2023-05-22T09:37:08.255Z,20.52
2023-05-22T09:40:15.045Z,20.42
2023-05-22T09:43:20.328Z,20.38
2023-05-22T09:46:25.579Z,20.43
2023-05-22T09:49:30.597Z,20.60
2023-05-22T09:52:37.796Z,20.55
2023-05-22T09:55:43.881Z,20.45
2023-05-22T09:58:49.564Z,20.52
2023-05-22T10:01:55.430Z,20.41
2023-05-22T10:05:02.590Z,20.42
2023-05-22T10:08:13.061Z,20.47
2023-05-22T10:11:18.260Z,20.67
2023-05-22T10:14:23.915Z,20.73
2023-05-22T10:17:29.301Z,20.75
2023-05-22T10:20:34.384Z,20.80
2023-05-22T10:23:41.240Z,20.90
2023-05-22T10:26:46.754Z,20.89
2023-05-22T10:29:54.463Z,20.87
2023-05-22T10:33:04.741Z,20.77
2023-05-22T10:36:11.738Z,20.79
2023-05-22T10:39:31.609Z,20.86
2023-05-22T10:42:38.381Z,20.91
2023-05-22T10:45:45.294Z,21.10
2023-05-22T10:48:51.796Z,21.16
2023-05-22T10:52:00.300Z,21.02
2023-05-22T10:55:10.259Z,20.90
2023-05-22T10:58:15.519Z,20.90
2023-05-22T11:01:21.739Z,20.98
2023-05-22T11:04:31.536Z,21.03
2023-05-22T11:07:42.574Z,21.13
2023-05-22T11:10:55.941Z,21.28
2023-05-22T11:14:04.560Z,21.25
2023-05-22T11:17:18.625Z,21.28
2023-05-22T11:20:24.930Z,21.30
2023-05-22T11:23:37.163Z,21.30
2023-05-22T11:26:46.060Z,21.45
2023-05-22T11:29:52.194Z,21.45
2023-05-22T11:32:58.382Z,21.46
2023-05-22T11:36:04.193Z,21.67
2023-05-22T11:39:09.720Z,21.64
2023-05-22T11:42:16.590Z,21.69
2023-05-22T11:45:21.895Z,21.64
2023-05-22T11:48:27.208Z,21.66
2023-05-22T11:51:32.453Z,21.72
2023-05-22T11:54:38.933Z,21.82
2023-05-22T11:57:47.305Z,22.06
2023-05-22T12:00:52.656Z,22.22
2023-05-22T12:03:58.020Z,22.18
2023-05-22T12:07:03.629Z,21.76
2023-05-22T12:10:09.353Z,22.03
2023-05-22T12:13:22.969Z,22.12
2023-05-22T12:16:28.210Z,22.26
2023-05-22T12:19:33.773Z,22.06
2023-05-22T12:22:44.282Z,22.13
2023-05-22T12:25:49.411Z,21.81
2023-05-22T12:28:56.473Z,22.11
2023-05-22T12:32:04.150Z,22.27
2023-05-22T12:35:17.300Z,22.47
2023-05-22T12:38:23.400Z,22.55
2023-05-22T12:41:28.580Z,22.54
2023-05-22T12:44:35.325Z,22.52
2023-05-22T12:47:40.413Z,22.59
2023-05-22T12:50:46.321Z,22.61
2023-05-22T12:53:51.467Z,22.71
2023-05-22T12:56:56.706Z,22.92
2023-05-22T13:00:03.191Z,23.10
2023-05-22T13:03:08.978Z,23.00
2023-05-22T13:06:14.420Z,23.10
2023-05-22T13:09:21.260Z,22.69
2023-05-22T13:12:27.287Z,22.45
2023-05-22T13:15:33.741Z,22.46
2023-05-22T13:18:38.904Z,22.62
2023-05-22T13:21:44.748Z,22.91
2023-05-22T13:24:50.111Z,23.16
2023-05-22T13:27:55.230Z,23.00
2023-05-22T13:31:01.782Z,23.20
2023-05-22T13:34:07.542Z,24.93
2023-05-22T13:37:13.423Z,25.26
2023-05-22T13:40:18.704Z,25.15
2023-05-22T13:43:23.873Z,24.12
2023-05-22T13:46:30.632Z,23.98
2023-05-22T13:49:35.780Z,24.54
2023-05-22T13:52:41.075Z,24.02
2023-05-22T13:55:46.673Z,23.78
2023-05-22T13:58:51.741Z,23.74
2023-05-22T14:01:58.297Z,23.68
2023-05-22T14:05:03.660Z,23.92
2023-05-22T14:08:09.038Z,23.91
2023-05-22T14:11:14.371Z,23.90
2023-05-22T14:14:23.866Z,23.71
2023-05-22T14:17:30.772Z,23.59
2023-05-22T14:20:36.103Z,23.56
2023-05-22T14:23:41.236Z,23.78
2023-05-22T14:26:46.302Z,23.62
2023-05-22T14:29:51.640Z,23.50
2023-05-22T14:32:58.286Z,23.51
2023-05-22T14:36:03.586Z,23.41
2023-05-22T14:39:08.815Z,23.53
2023-05-22T14:42:14.450Z,23.38
2023-05-22T14:45:19.585Z,23.24
2023-05-22T14:48:26.670Z,23.35
2023-05-22T14:51:32.091Z,23.10
2023-05-22T14:54:37.145Z,23.39
2023-05-22T14:57:42.324Z,23.01
2023-05-22T15:00:48.299Z,22.82
2023-05-22T15:03:54.982Z,22.68
2023-05-22T15:07:00.307Z,22.66
2023-05-22T15:10:05.984Z,22.70
2023-05-22T15:13:14.021Z,22.46
2023-05-22T15:16:19.243Z,22.50
2023-05-22T15:19:26.349Z,22.38
2023-05-22T15:22:31.554Z,22.05
2023-05-22T15:25:36.854Z,22.05
2023-05-22T15:28:42.335Z,22.22
2023-05-22T15:31:47.565Z,22.16
2023-05-22T15:34:54.243Z,22.13
2023-05-22T15:37:59.287Z,21.96
2023-05-22T15:41:04.585Z,21.97
2023-05-22T15:44:12.130Z,21.92
2023-05-22T15:47:17.534Z,21.61
2023-05-22T15:50:24.350Z,21.71
2023-05-22T15:53:29.502Z,21.81
2023-05-22T15:56:34.526Z,21.75
2023-05-22T15:59:39.745Z,21.64
2023-05-22T16:02:45.026Z,21.74
2023-05-22T16:05:51.586Z,21.64
2023-05-22T16:08:56.732Z,21.54
2023-05-22T16:12:02.014Z,21.50
2023-05-22T16:15:08.861Z,21.60
2023-05-22T16:18:14.070Z,21.54
2023-05-22T16:21:20.565Z,21.41
2023-05-22T16:24:26.171Z,21.43
2023-05-22T16:27:31.249Z,21.41
2023-05-22T16:30:36.652Z,21.23
2023-05-22T16:33:41.763Z,21.40
2023-05-22T16:36:48.356Z,21.25
2023-05-22T16:39:53.751Z,21.16
2023-05-22T16:42:58.930Z,21.20
2023-05-22T16:46:04.178Z,21.04
2023-05-22T16:49:09.436Z,21.12
2023-05-22T16:52:16.960Z,21.04
2023-05-22T16:55:22.419Z,20.82
2023-05-22T16:58:27.576Z,20.76
2023-05-22T17:01:32.999Z,20.63
2023-05-22T17:04:38.168Z,20.70
2023-05-22T17:07:44.719Z,20.58
2023-05-22T17:10:50.126Z,20.68
2023-05-22T17:13:55.510Z,20.54
2023-05-22T17:17:00.796Z,20.40
2023-05-22T17:20:07.383Z,20.37
2023-05-22T17:23:14.328Z,20.39
2023-05-22T17:26:19.505Z,20.40
2023-05-22T17:29:26.084Z,20.39
2023-05-22T17:32:33.248Z,20.43
2023-05-22T17:35:38.480Z,20.37
2023-05-22T17:38:45.078Z,20.37
2023-05-22T17:41:50.761Z,20.28
2023-05-22T17:44:56.065Z,20.29
2023-05-22T17:48:01.176Z,20.27
2023-05-22T17:51:06.813Z,20.17
2023-05-22T17:54:16.911Z,20.25
2023-05-22T17:57:22.031Z,20.18
2023-05-22T18:00:27.394Z,20.00
2023-05-22T18:03:32.831Z,20.04
2023-05-22T18:06:38.147Z,19.88
2023-05-22T18:09:44.702Z,19.78
2023-05-22T18:12:49.805Z,19.71
2023-05-22T18:15:55.785Z,19.57
2023-05-22T18:19:01.352Z,19.67
2023-05-22T18:22:06.662Z,19.54
2023-05-22T18:25:14.402Z,19.40
2023-05-22T18:28:23.366Z,19.35
2023-05-22T18:31:28.680Z,19.32
2023-05-22T18:34:35.803Z,19.26
2023-05-22T18:37:42.233Z,19.19
2023-05-22T18:40:48.926Z,19.12
2023-05-22T18:43:54.437Z,19.07
2023-05-22T18:46:59.740Z,19.00
2023-05-22T18:50:04.931Z,18.92
2023-05-22T18:53:11.237Z,18.87
2023-05-22T18:56:17.887Z,18.81
2023-05-22T18:59:23.143Z,18.78
2023-05-22T19:02:28.685Z,18.70
2023-05-22T19:05:34.043Z,18.68
2023-05-22T19:08:39.159Z,18.64
2023-05-22T19:11:45.798Z,18.65
2023-05-22T19:14:52.650Z,18.56
2023-05-22T19:17:58.077Z,18.46
2023-05-22T19:21:03.579Z,18.38
2023-05-22T19:24:08.968Z,18.27
2023-05-22T19:27:15.893Z,18.16
2023-05-22T19:30:22.064Z,18.04
2023-05-22T19:33:27.693Z,18.03
2023-05-22T19:36:32.892Z,18.00
2023-05-22T19:39:38.362Z,17.94
2023-05-22T19:42:45.048Z,17.91
2023-05-22T19:45:50.563Z,17.82
2023-05-22T19:48:56.003Z,17.82
2023-05-22T19:52:01.246Z,17.65
2023-05-22T19:55:07.252Z,17.60
2023-05-22T19:58:17.144Z,17.55
2023-05-22T20:01:22.549Z,17.53
2023-05-22T20:04:27.859Z,17.37
2023-05-22T20:07:33.240Z,17.42
2023-05-22T20:10:38.650Z,17.24
2023-05-22T20:13:45.476Z,17.12
2023-05-22T20:16:51.197Z,17.02
2023-05-22T20:19:57.693Z,17.09
2023-05-22T20:23:03.400Z,17.08
2023-05-22T20:26:08.627Z,16.91
2023-05-22T20:29:15.587Z,16.91
2023-05-22T20:32:20.867Z,16.80
2023-05-22T20:35:26.516Z,16.75
2023-05-22T20:38:34.580Z,16.60
2023-05-22T20:41:39.664Z,16.65
2023-05-22T20:44:46.303Z,16.62
2023-05-22T20:47:52.170Z,16.48
2023-05-22T20:50:57.443Z,16.44
2023-05-22T20:54:02.789Z,16.51
2023-05-22T20:57:07.959Z,16.40
2023-05-22T21:00:15.858Z,16.35
2023-05-22T21:03:22.053Z,16.39
2023-05-22T21:06:28.537Z,16.41
2023-05-22T21:09:33.680Z,16.30
2023-05-22T21:12:38.762Z,16.17
2023-05-22T21:15:45.228Z,16.26
2023-05-22T21:18:50.286Z,16.14
2023-05-22T21:21:55.500Z,16.19
2023-05-22T21:25:00.860Z,16.12
2023-05-22T21:28:07.749Z,16.11
2023-05-22T21:31:14.583Z,16.08
2023-05-22T21:34:19.678Z,16.05
2023-05-22T21:37:25.715Z,15.92
2023-05-22T21:40:30.827Z,15.92
2023-05-22T21:43:35.972Z,15.84
2023-05-22T21:46:42.554Z,15.91
2023-05-22T21:49:48.067Z,15.87
2023-05-22T21:52:53.556Z,15.84
2023-05-22T21:55:58.632Z,15.90
2023-05-22T21:59:03.759Z,15.55
2023-05-22T22:02:10.638Z,15.71
2023-05-22T22:05:18.601Z,15.58
2023-05-22T22:08:23.696Z,15.51
2023-05-22T22:11:28.885Z,15.53
2023-05-22T22:14:33.964Z,15.50
2023-05-22T22:17:40.687Z,15.52
2023-05-22T22:20:45.926Z,15.50
2023-05-22T22:23:51.320Z,15.28
2023-05-22T22:26:56.782Z,15.27
2023-05-22T22:30:02.454Z,15.28
2023-05-22T22:33:09.368Z,15.22
2023-05-22T22:36:14.537Z,15.10
2023-05-22T22:39:19.648Z,15.19
2023-05-22T22:42:24.939Z,15.16
2023-05-22T22:45:29.988Z,15.03
2023-05-22T22:48:36.654Z,15.10
2023-05-22T22:51:41.950Z,14.93
2023-05-22T22:54:47.092Z,14.90
2023-05-22T22:57:52.367Z,14.97
2023-05-22T23:00:57.733Z,14.80
2023-05-22T23:04:04.278Z,14.72
2023-05-22T23:07:09.971Z,14.96
2023-05-22T23:10:15.978Z,15.00
2023-05-22T23:13:21.209Z,14.96
2023-05-22T23:16:26.301Z,14.96
2023-05-22T23:19:33.072Z,14.91
2023-05-22T23:22:38.138Z,14.79
2023-05-22T23:25:43.366Z,14.88
2023-05-22T23:28:48.532Z,14.71
2023-05-22T23:31:54.192Z,14.74
2023-05-22T23:35:00.671Z,14.69
2023-05-22T23:38:05.959Z,14.61
2023-05-22T23:41:10.996Z,14.77
2023-05-22T23:44:16.196Z,14.66
2023-05-22T23:47:21.610Z,14.62
2023-05-22T23:50:28.280Z,14.61
2023-05-22T23:53:33.686Z,14.48
2023-05-22T23:56:39.061Z,14.38
2023-05-22T23:59:44.213Z,14.44
